sensor_id;sensor_type;location;lat;lon;timestamp;pressure;altitude;pressure_sealevel;temperature;humidity
15678;BME280;7939;50.814;6.368;2023-04-03T00:00:28;101108.00;;;9.72;56.67
15678;BME280;7939;50.814;6.368;2023-04-03T00:02:55;101109.69;;;9.72;56.80
15678;BME280;7939;50.814;6.368;2023-04-03T00:05:21;101105.09;;;9.59;56.50
15678;BME280;7939;50.814;6.368;2023-04-03T00:07:48;101107.69;;;9.60;56.57
15678;BME280;7939;50.814;6.368;2023-04-03T00:10:17;101103.66;;;9.68;57.06
15678;BME280;7939;50.814;6.368;2023-04-03T00:12:44;101097.69;;;9.68;56.84
15678;BME280;7939;50.814;6.368;2023-04-03T00:15:10;101097.72;;;9.69;56.70
15678;BME280;7939;50.814;6.368;2023-04-03T00:17:37;101098.59;;;9.70;56.52
15678;BME280;7939;50.814;6.368;2023-04-03T00:20:05;101097.75;;;9.71;56.08
15678;BME280;7939;50.814;6.368;2023-04-03T00:22:31;101106.22;;;9.68;56.68
15678;BME280;7939;50.814;6.368;2023-04-03T00:24:58;101101.97;;;9.69;56.85
15678;BME280;7939;50.814;6.368;2023-04-03T00:27:26;101105.41;;;9.71;56.50
15678;BME280;7939;50.814;6.368;2023-04-03T00:29:53;101109.66;;;9.70;56.62
15678;BME280;7939;50.814;6.368;2023-04-03T00:32:20;101110.22;;;9.60;56.71
15678;BME280;7939;50.814;6.368;2023-04-03T00:34:46;101108.75;;;9.68;56.77
15678;BME280;7939;50.814;6.368;2023-04-03T00:37:13;101112.75;;;9.59;56.53
15678;BME280;7939;50.814;6.368;2023-04-03T00:39:40;101108.75;;;9.68;56.82
15678;BME280;7939;50.814;6.368;2023-04-03T00:42:07;101111.34;;;9.70;56.72
15678;BME280;7939;50.814;6.368;2023-04-03T00:47:39;101114.47;;;9.60;56.39
15678;BME280;7939;50.814;6.368;2023-04-03T00:50:07;101113.81;;;9.67;56.76
15678;BME280;7939;50.814;6.368;2023-04-03T00:52:35;101119.88;;;9.70;56.61
15678;BME280;7939;50.814;6.368;2023-04-03T00:55:06;101117.31;;;9.70;56.54
15678;BME280;7939;50.814;6.368;2023-04-03T00:57:34;101118.19;;;9.72;56.29
15678;BME280;7939;50.814;6.368;2023-04-03T01:00:05;101114.03;;;9.75;56.63
15678;BME280;7939;50.814;6.368;2023-04-03T01:02:34;101116.47;;;9.71;56.40
15678;BME280;7939;50.814;6.368;2023-04-03T01:05:03;101117.28;;;9.69;56.60
15678;BME280;7939;50.814;6.368;2023-04-03T01:07:31;101113.81;;;9.67;56.74
15678;BME280;7939;50.814;6.368;2023-04-03T01:10:00;101118.13;;;9.69;56.71
15678;BME280;7939;50.814;6.368;2023-04-03T01:12:30;101114.91;;;9.77;56.49
15678;BME280;7939;50.814;6.368;2023-04-03T01:15:00;101109.69;;;9.72;56.84
15678;BME280;7939;50.814;6.368;2023-04-03T01:17:30;101101.19;;;9.73;56.52
15678;BME280;7939;50.814;6.368;2023-04-03T01:23:02;101111.25;;;9.67;56.96
15678;BME280;7939;50.814;6.368;2023-04-03T01:25:34;101099.56;;;9.75;56.68
15678;BME280;7939;50.814;6.368;2023-04-03T01:28:02;101112.22;;;9.72;56.52
15678;BME280;7939;50.814;6.368;2023-04-03T01:30:31;101108.97;;;9.78;56.46
15678;BME280;7939;50.814;6.368;2023-04-03T01:33:00;101108.94;;;9.76;56.37
15678;BME280;7939;50.814;6.368;2023-04-03T01:35:27;101121.47;;;9.67;56.77
15678;BME280;7939;50.814;6.368;2023-04-03T01:37:53;101114.78;;;9.72;56.52
15678;BME280;7939;50.814;6.368;2023-04-03T01:40:20;101116.50;;;9.73;57.00
15678;BME280;7939;50.814;6.368;2023-04-03T01:42:46;101116.56;;;9.75;56.51
15678;BME280;7939;50.814;6.368;2023-04-03T01:45:13;101120.75;;;9.72;56.40
15678;BME280;7939;50.814;6.368;2023-04-03T01:47:40;101119.13;;;9.75;56.25
15678;BME280;7939;50.814;6.368;2023-04-03T01:50:08;101119.16;;;9.76;56.65
15678;BME280;7939;50.814;6.368;2023-04-03T01:52:35;101119.16;;;9.76;56.33
15678;BME280;7939;50.814;6.368;2023-04-03T01:55:02;101122.47;;;9.73;56.40
15678;BME280;7939;50.814;6.368;2023-04-03T01:57:29;101120.72;;;9.71;57.13
15678;BME280;7939;50.814;6.368;2023-04-03T01:59:55;101122.56;;;9.77;56.81
15678;BME280;7939;50.814;6.368;2023-04-03T02:02:22;101118.16;;;9.71;56.88
15678;BME280;7939;50.814;6.368;2023-04-03T02:04:49;101123.41;;;9.76;57.11
15678;BME280;7939;50.814;6.368;2023-04-03T02:07:17;101128.44;;;9.74;56.49
15678;BME280;7939;50.814;6.368;2023-04-03T02:09:43;101124.25;;;9.76;56.34
15678;BME280;7939;50.814;6.368;2023-04-03T02:12:10;101128.44;;;9.74;56.63
15678;BME280;7939;50.814;6.368;2023-04-03T02:14:36;101130.97;;;9.72;56.87
15678;BME280;7939;50.814;6.368;2023-04-03T02:17:03;101130.06;;;9.70;56.83
15678;BME280;7939;50.814;6.368;2023-04-03T02:19:33;101128.31;;;9.68;56.39
15678;BME280;7939;50.814;6.368;2023-04-03T02:22:00;101127.44;;;9.67;56.87
15678;BME280;7939;50.814;6.368;2023-04-03T02:24:28;101130.88;;;9.68;56.78
15678;BME280;7939;50.814;6.368;2023-04-03T02:26:55;101134.19;;;9.65;56.44
15678;BME280;7939;50.814;6.368;2023-04-03T02:29:22;101130.81;;;9.66;57.09
15678;BME280;7939;50.814;6.368;2023-04-03T02:31:48;101136.69;;;9.62;56.69
15678;BME280;7939;50.814;6.368;2023-04-03T02:34:15;101124.81;;;9.64;56.81
15678;BME280;7939;50.814;6.368;2023-04-03T02:36:42;101132.50;;;9.66;56.40
15678;BME280;7939;50.814;6.368;2023-04-03T02:39:09;101134.94;;;9.61;56.98
15678;BME280;7939;50.814;6.368;2023-04-03T02:41:38;101140.13;;;9.64;57.01
15678;BME280;7939;50.814;6.368;2023-04-03T02:44:05;101135.00;;;9.63;56.41
15678;BME280;7939;50.814;6.368;2023-04-03T02:46:32;101134.88;;;9.58;56.48
15678;BME280;7939;50.814;6.368;2023-04-03T02:48:59;101137.38;;;9.57;56.73
15678;BME280;7939;50.814;6.368;2023-04-03T02:51:26;101137.38;;;9.57;56.82
15678;BME280;7939;50.814;6.368;2023-04-03T02:53:52;101137.38;;;9.57;57.22
15678;BME280;7939;50.814;6.368;2023-04-03T02:56:19;101140.69;;;9.54;56.95
15678;BME280;7939;50.814;6.368;2023-04-03T02:58:47;101136.59;;;9.59;57.00
15678;BME280;7939;50.814;6.368;2023-04-03T03:01:14;101137.31;;;9.55;56.55
15678;BME280;7939;50.814;6.368;2023-04-03T03:03:41;101138.97;;;9.53;56.75
15678;BME280;7939;50.814;6.368;2023-04-03T03:06:09;101136.41;;;9.52;57.21
15678;BME280;7939;50.814;6.368;2023-04-03T03:08:36;101138.06;;;9.50;56.54
15678;BME280;7939;50.814;6.368;2023-04-03T03:11:04;101135.56;;;9.53;56.45
15678;BME280;7939;50.814;6.368;2023-04-03T03:13:31;101138.13;;;9.53;57.00
15678;BME280;7939;50.814;6.368;2023-04-03T03:15:59;101139.69;;;9.48;56.62
15678;BME280;7939;50.814;6.368;2023-04-03T03:18:26;101137.06;;;9.44;56.69
15678;BME280;7939;50.814;6.368;2023-04-03T03:20:53;101138.78;;;9.45;56.76
15678;BME280;7939;50.814;6.368;2023-04-03T03:23:21;101130.97;;;9.39;56.79
15678;BME280;7939;50.814;6.368;2023-04-03T03:25:48;101133.66;;;9.44;56.44
15678;BME280;7939;50.814;6.368;2023-04-03T03:28:15;101131.13;;;9.45;56.42
15678;BME280;7939;50.814;6.368;2023-04-03T03:30:42;101130.22;;;9.43;56.36
15678;BME280;7939;50.814;6.368;2023-04-03T03:33:10;101129.25;;;9.38;56.64
15678;BME280;7939;50.814;6.368;2023-04-03T03:35:37;101125.88;;;9.39;56.83
15678;BME280;7939;50.814;6.368;2023-04-03T03:38:03;101130.06;;;9.37;56.60
15678;BME280;7939;50.814;6.368;2023-04-03T03:40:30;101131.78;;;9.38;57.06
15678;BME280;7939;50.814;6.368;2023-04-03T03:42:57;101134.34;;;9.38;56.46
15678;BME280;7939;50.814;6.368;2023-04-03T03:45:23;101131.00;;;9.41;56.31
15678;BME280;7939;50.814;6.368;2023-04-03T03:47:50;101135.22;;;9.39;56.75
15678;BME280;7939;50.814;6.368;2023-04-03T03:50:18;101127.69;;;9.43;56.46
15678;BME280;7939;50.814;6.368;2023-04-03T03:52:45;101134.34;;;9.38;57.22
15678;BME280;7939;50.814;6.368;2023-04-03T03:55:12;101130.88;;;9.36;56.33
15678;BME280;7939;50.814;6.368;2023-04-03T03:57:38;101124.97;;;9.37;56.70
15678;BME280;7939;50.814;6.368;2023-04-03T04:00:06;101142.00;;;9.38;56.50
15678;BME280;7939;50.814;6.368;2023-04-03T04:02:34;101131.66;;;9.34;56.58
15678;BME280;7939;50.814;6.368;2023-04-03T04:05:00;101146.03;;;9.30;57.16
15678;BME280;7939;50.814;6.368;2023-04-03T04:07:28;101139.25;;;9.31;57.19
15678;BME280;7939;50.814;6.368;2023-04-03T04:09:55;101144.28;;;9.29;56.74
15678;BME280;7939;50.814;6.368;2023-04-03T04:12:21;101148.50;;;9.27;56.38
15678;BME280;7939;50.814;6.368;2023-04-03T04:14:48;101150.25;;;9.30;56.25
15678;BME280;7939;50.814;6.368;2023-04-03T04:17:14;101150.16;;;9.25;56.60
15678;BME280;7939;50.814;6.368;2023-04-03T04:19:41;101145.88;;;9.24;56.76
15678;BME280;7939;50.814;6.368;2023-04-03T04:22:08;101149.16;;;9.20;57.20
15678;BME280;7939;50.814;6.368;2023-04-03T04:24:35;101156.94;;;9.25;56.65
15678;BME280;7939;50.814;6.368;2023-04-03T04:27:02;101151.69;;;9.20;56.37
15678;BME280;7939;50.814;6.368;2023-04-03T04:29:29;101156.00;;;9.23;56.51
15678;BME280;7939;50.814;6.368;2023-04-03T04:32:00;101156.88;;;9.23;57.12
15678;BME280;7939;50.814;6.368;2023-04-03T04:34:27;101150.97;;;9.24;56.86
15678;BME280;7939;50.814;6.368;2023-04-03T04:36:53;101160.25;;;9.22;56.15
15678;BME280;7939;50.814;6.368;2023-04-03T04:39:20;101171.28;;;9.21;56.36
15678;BME280;7939;50.814;6.368;2023-04-03T04:41:48;101167.84;;;9.19;56.77
15678;BME280;7939;50.814;6.368;2023-04-03T04:44:14;101167.88;;;9.21;56.42
15678;BME280;7939;50.814;6.368;2023-04-03T04:46:41;101170.31;;;9.17;57.00
15678;BME280;7939;50.814;6.368;2023-04-03T04:49:07;101171.25;;;9.19;56.32
15678;BME280;7939;50.814;6.368;2023-04-03T04:51:34;101171.25;;;9.19;56.17
15678;BME280;7939;50.814;6.368;2023-04-03T04:54:00;101176.38;;;9.21;56.40
15678;BME280;7939;50.814;6.368;2023-04-03T04:56:27;101180.63;;;9.21;57.06
15678;BME280;7939;50.814;6.368;2023-04-03T04:58:55;101182.16;;;9.15;56.63
15678;BME280;7939;50.814;6.368;2023-04-03T05:01:22;101181.16;;;9.10;57.01
15678;BME280;7939;50.814;6.368;2023-04-03T05:03:48;101177.03;;;9.14;56.43
15678;BME280;7939;50.814;6.368;2023-04-03T05:06:15;101179.59;;;9.14;56.48
15678;BME280;7939;50.814;6.368;2023-04-03T05:08:42;101177.09;;;9.17;56.14
15678;BME280;7939;50.814;6.368;2023-04-03T05:11:08;101177.00;;;9.12;56.52
15678;BME280;7939;50.814;6.368;2023-04-03T05:13:35;101178.75;;;9.15;56.53
15678;BME280;7939;50.814;6.368;2023-04-03T05:16:03;101181.28;;;9.13;56.70
15678;BME280;7939;50.814;6.368;2023-04-03T05:18:30;101188.06;;;9.13;56.46
15678;BME280;7939;50.814;6.368;2023-04-03T05:20:57;101191.34;;;9.09;56.86
15678;BME280;7939;50.814;6.368;2023-04-03T05:23:24;101193.88;;;9.09;56.79
15678;BME280;7939;50.814;6.368;2023-04-03T05:25:51;101198.91;;;9.06;56.40
15678;BME280;7939;50.814;6.368;2023-04-03T05:28:17;101203.06;;;9.04;56.18
15678;BME280;7939;50.814;6.368;2023-04-03T05:30:44;101198.94;;;9.07;56.33
15678;BME280;7939;50.814;6.368;2023-04-03T05:33:12;101201.38;;;9.04;56.93
15678;BME280;7939;50.814;6.368;2023-04-03T05:35:39;101201.38;;;9.04;56.46
15678;BME280;7939;50.814;6.368;2023-04-03T05:38:06;101207.28;;;9.02;57.03
15678;BME280;7939;50.814;6.368;2023-04-03T05:40:33;101207.16;;;8.99;56.33
15678;BME280;7939;50.814;6.368;2023-04-03T05:42:59;101215.78;;;9.02;56.87
15678;BME280;7939;50.814;6.368;2023-04-03T05:45:26;101219.19;;;9.03;56.71
15678;BME280;7939;50.814;6.368;2023-04-03T05:47:53;101218.31;;;9.01;56.91
15678;BME280;7939;50.814;6.368;2023-04-03T05:50:21;101221.59;;;8.98;56.69
15678;BME280;7939;50.814;6.368;2023-04-03T05:52:49;101220.88;;;9.02;56.36
15678;BME280;7939;50.814;6.368;2023-04-03T05:55:17;101220.94;;;9.04;56.40
15678;BME280;7939;50.814;6.368;2023-04-03T05:57:43;101222.56;;;9.02;56.51
15678;BME280;7939;50.814;6.368;2023-04-03T06:00:12;101225.84;;;8.98;56.64
15678;BME280;7939;50.814;6.368;2023-04-03T06:02:41;101224.16;;;8.98;56.90
15678;BME280;7939;50.814;6.368;2023-04-03T06:05:08;101219.88;;;8.97;56.82
15678;BME280;7939;50.814;6.368;2023-04-03T06:07:38;101224.97;;;8.97;57.01
15678;BME280;7939;50.814;6.368;2023-04-03T06:10:06;101236.03;;;8.98;56.75
15678;BME280;7939;50.814;6.368;2023-04-03T06:12:33;101228.47;;;8.99;56.15
15678;BME280;7939;50.814;6.368;2023-04-03T06:14:59;101225.84;;;8.98;56.74
15678;BME280;7939;50.814;6.368;2023-04-03T06:17:26;101219.06;;;8.98;56.18
15678;BME280;7939;50.814;6.368;2023-04-03T06:19:53;101233.50;;;8.98;56.67
15678;BME280;7939;50.814;6.368;2023-04-03T06:22:21;101237.63;;;8.93;57.15
15678;BME280;7939;50.814;6.368;2023-04-03T06:24:50;101235.16;;;8.96;56.77
15678;BME280;7939;50.814;6.368;2023-04-03T06:27:16;101236.00;;;8.96;56.53
15678;BME280;7939;50.814;6.368;2023-04-03T06:29:43;101243.66;;;8.96;57.23
15678;BME280;7939;50.814;6.368;2023-04-03T06:32:10;101242.75;;;8.94;56.91
15678;BME280;7939;50.814;6.368;2023-04-03T06:34:37;101244.47;;;8.95;56.42
15678;BME280;7939;50.814;6.368;2023-04-03T06:37:03;101241.78;;;8.90;56.55
15678;BME280;7939;50.814;6.368;2023-04-03T06:39:30;101248.19;;;8.78;57.00
15678;BME280;7939;50.814;6.368;2023-04-03T06:41:59;101246.44;;;8.75;56.75
15678;BME280;7939;50.814;6.368;2023-04-03T06:44:25;101246.28;;;8.71;56.52
15678;BME280;7939;50.814;6.368;2023-04-03T06:46:52;101241.59;;;8.84;55.96
15678;BME280;7939;50.814;6.368;2023-04-03T06:49:19;101242.47;;;8.85;56.75
15678;BME280;7939;50.814;6.368;2023-04-03T06:51:46;101246.03;;;8.63;56.29
15678;BME280;7939;50.814;6.368;2023-04-03T06:54:13;101238.66;;;8.72;56.61
15678;BME280;7939;50.814;6.368;2023-04-03T06:56:40;101253.31;;;8.79;57.03
15678;BME280;7939;50.814;6.368;2023-04-03T06:59:09;101243.53;;;8.64;56.59
15678;BME280;7939;50.814;6.368;2023-04-03T07:01:37;101242.16;;;8.74;57.18
15678;BME280;7939;50.814;6.368;2023-04-03T07:04:04;101246.03;;;8.63;56.04
15678;BME280;7939;50.814;6.368;2023-04-03T07:06:31;101242.53;;;8.59;56.51
15678;BME280;7939;50.814;6.368;2023-04-03T07:08:58;101248.25;;;8.52;55.80
15678;BME280;7939;50.814;6.368;2023-04-03T07:11:25;101240.44;;;8.48;55.94
15678;BME280;7939;50.814;6.368;2023-04-03T07:13:52;101245.53;;;8.48;56.07
15678;BME280;7939;50.814;6.368;2023-04-03T07:16:20;101242.00;;;8.43;54.76
15678;BME280;7939;50.814;6.368;2023-04-03T07:18:47;101242.03;;;8.44;56.24
15678;BME280;7939;50.814;6.368;2023-04-03T07:21:13;101247.88;;;8.42;55.79
15678;BME280;7939;50.814;6.368;2023-04-03T07:23:40;101242.13;;;8.22;54.61
15678;BME280;7939;50.814;6.368;2023-04-03T07:26:07;101242.53;;;8.34;55.91
15678;BME280;7939;50.814;6.368;2023-04-03T07:28:34;101242.97;;;8.22;54.81
15678;BME280;7939;50.814;6.368;2023-04-03T07:31:04;101254.66;;;8.41;55.86
15678;BME280;7939;50.814;6.368;2023-04-03T07:33:35;101255.44;;;8.38;56.24
15678;BME280;7939;50.814;6.368;2023-04-03T07:36:03;101256.50;;;8.45;56.74
15678;BME280;7939;50.814;6.368;2023-04-03T07:38:30;101252.47;;;8.26;54.23
15678;BME280;7939;50.814;6.368;2023-04-03T07:40:56;101259.06;;;8.21;54.96
15678;BME280;7939;50.814;6.368;2023-04-03T07:43:23;101249.75;;;8.22;54.53
15678;BME280;7939;50.814;6.368;2023-04-03T07:45:50;101252.41;;;8.25;55.47
15678;BME280;7939;50.814;6.368;2023-04-03T07:48:17;101250.91;;;8.30;55.40
15678;BME280;7939;50.814;6.368;2023-04-03T07:50:46;101260.97;;;8.27;55.91
15678;BME280;7939;50.814;6.368;2023-04-03T07:53:13;101260.25;;;8.31;55.22
15678;BME280;7939;50.814;6.368;2023-04-03T07:55:40;101262.59;;;8.25;54.41
15678;BME280;7939;50.814;6.368;2023-04-03T07:58:09;101260.09;;;8.26;54.77
15678;BME280;7939;50.814;6.368;2023-04-03T08:00:36;101251.47;;;8.23;54.19
15678;BME280;7939;50.814;6.368;2023-04-03T08:03:03;101263.16;;;8.16;54.06
15678;BME280;7939;50.814;6.368;2023-04-03T08:05:30;101262.00;;;8.32;55.15
15678;BME280;7939;50.814;6.368;2023-04-03T08:07:58;101271.09;;;8.25;54.57
15678;BME280;7939;50.814;6.368;2023-04-03T08:10:25;101266.25;;;8.33;55.19
15678;BME280;7939;50.814;6.368;2023-04-03T08:12:52;101264.09;;;8.44;55.93
15678;BME280;7939;50.814;6.368;2023-04-03T08:15:18;101259.53;;;8.35;55.09
15678;BME280;7939;50.814;6.368;2023-04-03T08:17:45;101256.69;;;8.26;55.47
15678;BME280;7939;50.814;6.368;2023-04-03T08:20:12;101265.44;;;8.08;54.93
15678;BME280;7939;50.814;6.368;2023-04-03T08:22:38;101263.81;;;8.10;54.51
15678;BME280;7939;50.814;6.368;2023-04-03T08:25:08;101271.63;;;7.91;54.25
15678;BME280;7939;50.814;6.368;2023-04-03T08:27:34;101263.19;;;7.92;54.46
15678;BME280;7939;50.814;6.368;2023-04-03T08:30:01;101269.28;;;7.97;54.19
15678;BME280;7939;50.814;6.368;2023-04-03T08:32:28;101273.72;;;8.03;54.23
15678;BME280;7939;50.814;6.368;2023-04-03T08:34:55;101265.84;;;7.95;53.93
15678;BME280;7939;50.814;6.368;2023-04-03T08:37:21;101264.25;;;7.73;53.71
15678;BME280;7939;50.814;6.368;2023-04-03T08:39:48;101269.56;;;8.05;53.66
15678;BME280;7939;50.814;6.368;2023-04-03T08:42:26;101278.00;;;8.04;54.17
15678;BME280;7939;50.814;6.368;2023-04-03T08:45:02;101273.78;;;8.04;54.09
15678;BME280;7939;50.814;6.368;2023-04-03T08:47:38;101283.00;;;8.01;54.64
15678;BME280;7939;50.814;6.368;2023-04-03T08:50:07;101283.97;;;8.04;54.26
15678;BME280;7939;50.814;6.368;2023-04-03T08:52:39;101282.81;;;8.20;54.68
15678;BME280;7939;50.814;6.368;2023-04-03T08:55:18;101281.69;;;8.12;54.79
15678;BME280;7939;50.814;6.368;2023-04-03T08:57:48;101277.72;;;8.44;54.67
15678;BME280;7939;50.814;6.368;2023-04-03T09:00:19;101275.84;;;8.65;54.95
15678;BME280;7939;50.814;6.368;2023-04-03T09:02:48;101276.50;;;8.60;53.29
15678;BME280;7939;50.814;6.368;2023-04-03T09:05:17;101279.63;;;8.51;53.27
15678;BME280;7939;50.814;6.368;2023-04-03T09:07:46;101278.00;;;8.53;52.96
15678;BME280;7939;50.814;6.368;2023-04-03T09:10:15;101281.78;;;8.66;52.42
15678;BME280;7939;50.814;6.368;2023-04-03T09:12:52;101286.00;;;8.64;53.29
15678;BME280;7939;50.814;6.368;2023-04-03T09:15:22;101285.66;;;8.80;53.08
15678;BME280;7939;50.814;6.368;2023-04-03T09:17:59;101285.75;;;8.83;51.92
15678;BME280;7939;50.814;6.368;2023-04-03T09:20:38;101284.50;;;8.71;52.99
15678;BME280;7939;50.814;6.368;2023-04-03T09:23:16;101282.38;;;8.84;52.27
15678;BME280;7939;50.814;6.368;2023-04-03T09:25:45;101291.38;;;9.00;52.19
15678;BME280;7939;50.814;6.368;2023-04-03T09:28:13;101283.59;;;8.96;52.20
15678;BME280;7939;50.814;6.368;2023-04-03T09:30:40;101283.13;;;9.09;52.06
15678;BME280;7939;50.814;6.368;2023-04-03T09:33:06;101286.09;;;9.23;52.68
15678;BME280;7939;50.814;6.368;2023-04-03T09:35:35;101279.56;;;9.31;52.16
15678;BME280;7939;50.814;6.368;2023-04-03T09:38:16;101281.28;;;9.05;51.28
15678;BME280;7939;50.814;6.368;2023-04-03T09:40:43;101277.50;;;9.19;50.93
15678;BME280;7939;50.814;6.368;2023-04-03T09:43:22;101272.69;;;9.30;51.60
15678;BME280;7939;50.814;6.368;2023-04-03T09:45:50;101273.88;;;9.41;51.49
15678;BME280;7939;50.814;6.368;2023-04-03T09:48:20;101269.78;;;9.46;51.25
15678;BME280;7939;50.814;6.368;2023-04-03T09:50:56;101268.81;;;9.42;50.34
15678;BME280;7939;50.814;6.368;2023-04-03T09:53:37;101262.84;;;9.42;49.73
15678;BME280;7939;50.814;6.368;2023-04-03T09:56:18;101257.06;;;9.48;49.79
15678;BME280;7939;50.814;6.368;2023-04-03T09:58:50;101266.75;;;9.59;50.35
15678;BME280;7939;50.814;6.368;2023-04-03T10:01:27;101260.25;;;9.70;50.40
15678;BME280;7939;50.814;6.368;2023-04-03T10:04:08;101256.81;;;9.68;48.92
15678;BME280;7939;50.814;6.368;2023-04-03T10:06:37;101254.41;;;9.75;49.74
15678;BME280;7939;50.814;6.368;2023-04-03T10:09:16;101260.31;;;9.73;48.33
15678;BME280;7939;50.814;6.368;2023-04-03T10:11:58;101260.41;;;9.77;48.01
15678;BME280;7939;50.814;6.368;2023-04-03T10:14:27;101261.25;;;9.76;47.60
15678;BME280;7939;50.814;6.368;2023-04-03T10:17:02;101258.84;;;9.82;47.75
15678;BME280;7939;50.814;6.368;2023-04-03T10:19:36;101260.56;;;9.81;47.75
15678;BME280;7939;50.814;6.368;2023-04-03T10:22:16;101258.91;;;9.83;47.73
15678;BME280;7939;50.814;6.368;2023-04-03T10:24:52;101258.94;;;9.85;47.67
15678;BME280;7939;50.814;6.368;2023-04-03T10:27:26;101240.22;;;9.86;46.75
15678;BME280;7939;50.814;6.368;2023-04-03T10:30:04;101236.09;;;9.91;47.19
15678;BME280;7939;50.814;6.368;2023-04-03T10:32:45;101241.47;;;10.00;47.86
15678;BME280;7939;50.814;6.368;2023-04-03T10:35:23;101241.38;;;9.97;46.77
15678;BME280;7939;50.814;6.368;2023-04-03T10:38:01;101230.59;;;10.07;46.31
15678;BME280;7939;50.814;6.368;2023-04-03T10:40:34;101228.53;;;10.25;44.78
15678;BME280;7939;50.814;6.368;2023-04-03T10:43:09;101234.16;;;10.48;45.26
15678;BME280;7939;50.814;6.368;2023-04-03T10:45:49;101237.97;;;10.64;45.71
15678;BME280;7939;50.814;6.368;2023-04-03T10:48:29;101229.72;;;10.76;45.29
15678;BME280;7939;50.814;6.368;2023-04-03T10:51:03;101229.97;;;10.88;45.09
15678;BME280;7939;50.814;6.368;2023-04-03T10:53:37;101234.13;;;10.83;44.53
15678;BME280;7939;50.814;6.368;2023-04-03T10:56:12;101237.47;;;10.80;43.22
15678;BME280;7939;50.814;6.368;2023-04-03T10:58:43;101237.69;;;10.90;43.67
15678;BME280;7939;50.814;6.368;2023-04-03T11:01:16;101243.94;;;11.02;44.13
15678;BME280;7939;50.814;6.368;2023-04-03T11:03:46;101232.84;;;11.02;42.90
15678;BME280;7939;50.814;6.368;2023-04-03T11:06:15;101237.13;;;11.03;43.20
15678;BME280;7939;50.814;6.368;2023-04-03T11:08:44;101234.59;;;11.04;43.46
15678;BME280;7939;50.814;6.368;2023-04-03T11:11:15;101235.56;;;11.10;43.33
15678;BME280;7939;50.814;6.368;2023-04-03T11:13:46;101232.25;;;11.15;43.46
15678;BME280;7939;50.814;6.368;2023-04-03T11:16:20;101224.63;;;11.18;42.66
15678;BME280;7939;50.814;6.368;2023-04-03T11:18:52;101222.16;;;11.21;42.35
15678;BME280;7939;50.814;6.368;2023-04-03T11:21:24;101216.31;;;11.27;43.28
15678;BME280;7939;50.814;6.368;2023-04-03T11:23:56;101198.41;;;11.28;42.53
15678;BME280;7939;50.814;6.368;2023-04-03T11:26:27;101210.44;;;11.32;43.29
15678;BME280;7939;50.814;6.368;2023-04-03T11:28:58;101195.13;;;11.34;42.90
15678;BME280;7939;50.814;6.368;2023-04-03T11:31:35;101207.91;;;11.34;41.94
15678;BME280;7939;50.814;6.368;2023-04-03T11:34:10;101197.56;;;11.29;40.59
15678;BME280;7939;50.814;6.368;2023-04-03T11:36:44;101190.84;;;11.33;40.79
15678;BME280;7939;50.814;6.368;2023-04-03T11:39:20;101204.38;;;11.29;40.99
15678;BME280;7939;50.814;6.368;2023-04-03T11:41:49;101184.91;;;11.37;41.12
15678;BME280;7939;50.814;6.368;2023-04-03T11:44:32;101188.28;;;11.34;40.26
15678;BME280;7939;50.814;6.368;2023-04-03T11:47:01;101188.41;;;11.39;41.94
15678;BME280;7939;50.814;6.368;2023-04-03T11:49:51;101194.47;;;11.44;41.66
15678;BME280;7939;50.814;6.368;2023-04-03T11:58:24;101161.47;;;11.61;42.93
15678;BME280;7939;50.814;6.368;2023-04-03T12:01:08;101175.94;;;11.57;42.51
15678;BME280;7939;50.814;6.368;2023-04-03T12:06:59;101162.22;;;11.55;41.74
15678;BME280;7939;50.814;6.368;2023-04-03T12:09:54;101160.53;;;11.56;40.73
15678;BME280;7939;50.814;6.368;2023-04-03T12:12:28;101164.91;;;11.61;40.43
15678;BME280;7939;50.814;6.368;2023-04-03T12:14:55;101161.47;;;11.59;41.40
15678;BME280;7939;50.814;6.368;2023-04-03T12:17:38;101156.28;;;11.56;41.20
15678;BME280;7939;50.814;6.368;2023-04-03T12:23:23;101164.03;;;11.61;40.95
15678;BME280;7939;50.814;6.368;2023-04-03T12:25:51;101152.94;;;11.60;39.97
15678;BME280;7939;50.814;6.368;2023-04-03T12:28:18;101152.09;;;11.61;39.46
15678;BME280;7939;50.814;6.368;2023-04-03T12:30:45;101138.47;;;11.62;40.93
15678;BME280;7939;50.814;6.368;2023-04-03T12:33:26;101140.97;;;11.59;40.66
15678;BME280;7939;50.814;6.368;2023-04-03T12:36:03;101145.13;;;11.53;39.21
15678;BME280;7939;50.814;6.368;2023-04-03T12:39:03;101147.72;;;11.54;39.40
15678;BME280;7939;50.814;6.368;2023-04-03T12:41:38;101145.06;;;11.50;39.40
15678;BME280;7939;50.814;6.368;2023-04-03T12:47:22;101134.66;;;11.41;38.36
15678;BME280;7939;50.814;6.368;2023-04-03T12:49:50;101134.69;;;11.42;37.86
15678;BME280;7939;50.814;6.368;2023-04-03T12:52:19;101133.81;;;11.40;38.09
15678;BME280;7939;50.814;6.368;2023-04-03T12:54:51;101134.66;;;11.41;38.62
15678;BME280;7939;50.814;6.368;2023-04-03T12:57:19;101132.19;;;11.45;38.70
15678;BME280;7939;50.814;6.368;2023-04-03T12:59:46;101132.09;;;11.41;38.52
15678;BME280;7939;50.814;6.368;2023-04-03T13:02:20;101121.88;;;11.41;38.32
15678;BME280;7939;50.814;6.368;2023-04-03T13:04:49;101130.28;;;11.35;37.49
15678;BME280;7939;50.814;6.368;2023-04-03T13:07:21;101115.06;;;11.43;38.16
15678;BME280;7939;50.814;6.368;2023-04-03T13:09:59;101123.38;;;11.29;37.86
15678;BME280;7939;50.814;6.368;2023-04-03T13:12:26;101115.03;;;11.40;38.25
15678;BME280;7939;50.814;6.368;2023-04-03T13:14:56;101110.88;;;11.45;38.05
15678;BME280;7939;50.814;6.368;2023-04-03T13:17:24;101112.69;;;11.52;39.87
15678;BME280;7939;50.814;6.368;2023-04-03T13:19:51;101103.00;;;11.35;37.56
15678;BME280;7939;50.814;6.368;2023-04-03T13:22:28;101105.69;;;11.42;38.98
15678;BME280;7939;50.814;6.368;2023-04-03T13:24:59;101106.41;;;11.34;37.36
15678;BME280;7939;50.814;6.368;2023-04-03T13:27:30;101095.47;;;11.43;38.53
15678;BME280;7939;50.814;6.368;2023-04-03T13:29:59;101098.84;;;11.41;38.24
15678;BME280;7939;50.814;6.368;2023-04-03T13:32:28;101093.72;;;11.41;38.73
15678;BME280;7939;50.814;6.368;2023-04-03T13:34:56;101088.69;;;11.45;39.30
15678;BME280;7939;50.814;6.368;2023-04-03T13:37:24;101088.69;;;11.45;39.30
15678;BME280;7939;50.814;6.368;2023-04-03T13:40:04;101079.19;;;11.40;38.00